sensor_id;sensor_type;location;lat;lon;timestamp;pressure;altitude;pressure_sealevel;temperature;humidity
43824;BME280;29470;53.550;9.926;2023-04-28T00:04:37;101458.97;;;11.18;56.68
43824;BME280;29470;53.550;9.926;2023-04-28T00:09:40;101456.69;;;11.11;57.49
43824;BME280;29470;53.550;9.926;2023-04-28T00:14:43;101457.28;;;10.96;57.52
43824;BME280;29470;53.550;9.926;2023-04-28T00:19:47;101457.41;;;10.98;57.77
43824;BME280;29470;53.550;9.926;2023-04-28T00:24:50;101450.34;;;10.63;58.63
43824;BME280;29470;53.550;9.926;2023-04-28T00:29:53;101445.13;;;10.73;58.61
43824;BME280;29470;53.550;9.926;2023-04-28T00:34:57;101436.56;;;10.52;59.00
43824;BME280;29470;53.550;9.926;2023-04-28T00:40:00;101428.94;;;10.32;59.30
43824;BME280;29470;53.550;9.926;2023-04-28T00:45:04;101431.44;;;10.21;60.52
43824;BME280;29470;53.550;9.926;2023-04-28T00:50:09;101423.78;;;10.22;60.61
43824;BME280;29470;53.550;9.926;2023-04-28T00:55:14;101417.47;;;10.19;60.78
43824;BME280;29470;53.550;9.926;2023-04-28T01:00:17;101411.03;;;10.13;60.66
43824;BME280;29470;53.550;9.926;2023-04-28T01:05:23;101415.72;;;9.97;61.46
43824;BME280;29470;53.550;9.926;2023-04-28T01:10:27;101409.38;;;9.93;61.13
43824;BME280;29470;53.550;9.926;2023-04-28T01:15:34;101412.72;;;10.02;60.96
43824;BME280;29470;53.550;9.926;2023-04-28T01:20:38;101407.31;;;9.89;61.42
43824;BME280;29470;53.550;9.926;2023-04-28T01:25:43;101402.03;;;9.98;60.34
43824;BME280;29470;53.550;9.926;2023-04-28T01:30:46;101402.78;;;9.97;60.39
43824;BME280;29470;53.550;9.926;2023-04-28T01:35:49;101396.09;;;9.78;60.60
43824;BME280;29470;53.550;9.926;2023-04-28T01:40:54;101394.56;;;9.70;60.47
43824;BME280;29470;53.550;9.926;2023-04-28T01:45:59;101384.91;;;9.67;60.17
43824;BME280;29470;53.550;9.926;2023-04-28T01:51:02;101387.66;;;9.91;58.95
43824;BME280;29470;53.550;9.926;2023-04-28T01:56:06;101384.44;;;10.04;59.24
43824;BME280;29470;53.550;9.926;2023-04-28T02:01:09;101386.53;;;9.87;59.43
43824;BME280;29470;53.550;9.926;2023-04-28T02:06:13;101375.44;;;9.68;59.76
43824;BME280;29470;53.550;9.926;2023-04-28T02:11:20;101370.09;;;9.87;59.24
43824;BME280;29470;53.550;9.926;2023-04-28T02:16:30;101373.63;;;9.77;59.04
43824;BME280;29470;53.550;9.926;2023-04-28T02:21:47;101371.06;;;9.56;58.66
43824;BME280;29470;53.550;9.926;2023-04-28T02:26:51;101365.63;;;9.74;58.38
43824;BME280;29470;53.550;9.926;2023-04-28T02:31:54;101357.66;;;9.40;59.62
43824;BME280;29470;53.550;9.926;2023-04-28T02:36:57;101352.47;;;9.71;58.98
43824;BME280;29470;53.550;9.926;2023-04-28T02:42:02;101345.78;;;9.42;59.24
43824;BME280;29470;53.550;9.926;2023-04-28T02:47:05;101341.53;;;9.42;59.73
43824;BME280;29470;53.550;9.926;2023-04-28T02:52:09;101331.06;;;9.51;59.87
43824;BME280;29470;53.550;9.926;2023-04-28T02:57:13;101328.22;;;9.17;60.47
43824;BME280;29470;53.550;9.926;2023-04-28T03:02:16;101317.09;;;9.49;59.36
43824;BME280;29470;53.550;9.926;2023-04-28T03:07:21;101314.69;;;9.09;61.05
43824;BME280;29470;53.550;9.926;2023-04-28T03:12:25;101302.16;;;9.24;60.20
43824;BME280;29470;53.550;9.926;2023-04-28T03:17:33;101298.03;;;9.06;60.16
43824;BME280;29470;53.550;9.926;2023-04-28T03:22:37;101284.59;;;9.10;60.40
43824;BME280;29470;53.550;9.926;2023-04-28T03:27:44;101286.81;;;9.16;59.36
43824;BME280;29470;53.550;9.926;2023-04-28T03:32:47;101280.72;;;9.25;59.13
43824;BME280;29470;53.550;9.926;2023-04-28T03:37:53;101274.25;;;9.41;58.51
43824;BME280;29470;53.550;9.926;2023-04-28T03:42:57;101273.25;;;9.28;58.43
43824;BME280;29470;53.550;9.926;2023-04-28T03:48:09;101271.59;;;9.29;58.37
43824;BME280;29470;53.550;9.926;2023-04-28T03:53:13;101263.06;;;9.09;59.58
43824;BME280;29470;53.550;9.926;2023-04-28T03:58:19;101250.81;;;9.07;59.30
43824;BME280;29470;53.550;9.926;2023-04-28T04:03:36;101258.28;;;9.24;58.88
43824;BME280;29470;53.550;9.926;2023-04-28T04:08:40;101248.22;;;9.07;59.16
43824;BME280;29470;53.550;9.926;2023-04-28T04:13:44;101247.44;;;9.08;58.90
43824;BME280;29470;53.550;9.926;2023-04-28T04:18:53;101243.22;;;8.98;58.93
43824;BME280;29470;53.550;9.926;2023-04-28T04:24:08;101230.91;;;9.26;58.33
43824;BME280;29470;53.550;9.926;2023-04-28T04:29:13;101224.53;;;8.69;59.72
43824;BME280;29470;53.550;9.926;2023-04-28T04:34:16;101223.75;;;8.81;58.96
43824;BME280;29470;53.550;9.926;2023-04-28T04:39:20;101224.97;;;9.27;57.61
43824;BME280;29470;53.550;9.926;2023-04-28T04:44:24;101217.97;;;9.37;56.70
43824;BME280;29470;53.550;9.926;2023-04-28T04:49:27;101215.44;;;9.06;57.37
43824;BME280;29470;53.550;9.926;2023-04-28T04:54:31;101213.38;;;9.12;57.49
43824;BME280;29470;53.550;9.926;2023-04-28T04:59:35;101206.50;;;9.43;56.42
43824;BME280;29470;53.550;9.926;2023-04-28T05:04:42;101202.00;;;9.20;55.73
43824;BME280;29470;53.550;9.926;2023-04-28T05:09:48;101201.88;;;9.29;56.45
43824;BME280;29470;53.550;9.926;2023-04-28T05:14:52;101202.50;;;9.37;55.82
43824;BME280;29470;53.550;9.926;2023-04-28T05:19:55;101193.78;;;9.14;56.00
43824;BME280;29470;53.550;9.926;2023-04-28T05:24:58;101192.78;;;9.55;54.76
43824;BME280;29470;53.550;9.926;2023-04-28T05:30:05;101182.81;;;9.82;54.23
43824;BME280;29470;53.550;9.926;2023-04-28T05:35:12;101183.00;;;9.73;53.54
43824;BME280;29470;53.550;9.926;2023-04-28T05:40:15;101176.72;;;9.92;52.86
43824;BME280;29470;53.550;9.926;2023-04-28T05:45:20;101166.66;;;10.29;52.03
43824;BME280;29470;53.550;9.926;2023-04-28T05:50:23;101160.81;;;10.54;51.07
43824;BME280;29470;53.550;9.926;2023-04-28T05:55:45;101159.03;;;10.53;50.41
43824;BME280;29470;53.550;9.926;2023-04-28T06:02:36;101158.13;;;11.71;47.06
43824;BME280;29470;53.550;9.926;2023-04-28T06:08:06;101156.09;;;12.42;45.08
43824;BME280;29470;53.550;9.926;2023-04-28T06:13:11;101148.81;;;12.36;44.47
43824;BME280;29470;53.550;9.926;2023-04-28T06:18:17;101150.66;;;12.64;44.10
43824;BME280;29470;53.550;9.926;2023-04-28T06:23:20;101142.13;;;13.73;42.64
43824;BME280;29470;53.550;9.926;2023-04-28T06:28:24;101144.94;;;15.08;39.86
43824;BME280;29470;53.550;9.926;2023-04-28T06:33:29;101135.78;;;16.44;37.12
43824;BME280;29470;53.550;9.926;2023-04-28T06:38:36;101127.75;;;17.84;34.64
43824;BME280;29470;53.550;9.926;2023-04-28T06:43:42;101117.81;;;18.55;33.56
43824;BME280;29470;53.550;9.926;2023-04-28T06:49:01;101119.53;;;18.76;32.70
43824;BME280;29470;53.550;9.926;2023-04-28T06:54:13;101113.63;;;17.61;34.06
43824;BME280;29470;53.550;9.926;2023-04-28T06:59:30;101113.66;;;18.39;32.72
43824;BME280;29470;53.550;9.926;2023-04-28T07:04:43;101110.28;;;18.84;32.15
43824;BME280;29470;53.550;9.926;2023-04-28T07:09:49;101104.19;;;19.28;31.31
43824;BME280;29470;53.550;9.926;2023-04-28T07:14:59;101095.53;;;19.53;30.99
43824;BME280;29470;53.550;9.926;2023-04-28T07:20:05;101091.97;;;21.00;29.22
43824;BME280;29470;53.550;9.926;2023-04-28T07:25:08;101086.84;;;22.59;27.47
43824;BME280;29470;53.550;9.926;2023-04-28T07:30:12;101075.59;;;24.29;25.38
43824;BME280;29470;53.550;9.926;2023-04-28T07:35:29;101077.19;;;25.30;24.97
43824;BME280;29470;53.550;9.926;2023-04-28T07:40:32;101078.06;;;24.20;25.12
43824;BME280;29470;53.550;9.926;2023-04-28T07:45:37;101079.97;;;21.99;27.03
43824;BME280;29470;53.550;9.926;2023-04-28T07:50:41;101070.06;;;22.91;26.49
43824;BME280;29470;53.550;9.926;2023-04-28T07:55:44;101082.91;;;22.43;26.47
43824;BME280;29470;53.550;9.926;2023-04-28T08:00:47;101070.63;;;20.91;27.95
43824;BME280;29470;53.550;9.926;2023-04-28T08:05:51;101076.00;;;18.99;30.44
43824;BME280;29470;53.550;9.926;2023-04-28T08:10:54;101061.13;;;18.58;31.02
43824;BME280;29470;53.550;9.926;2023-04-28T08:15:57;101061.34;;;18.62;31.77
43824;BME280;29470;53.550;9.926;2023-04-28T08:21:03;101059.41;;;17.01;33.86
43824;BME280;29470;53.550;9.926;2023-04-28T08:26:07;101046.28;;;16.12;34.90
43824;BME280;29470;53.550;9.926;2023-04-28T08:31:10;101049.47;;;17.69;33.72
43824;BME280;29470;53.550;9.926;2023-04-28T08:36:14;101048.78;;;17.34;34.27
43824;BME280;29470;53.550;9.926;2023-04-28T08:41:18;101050.44;;;17.51;33.97
43824;BME280;29470;53.550;9.926;2023-04-28T08:46:22;101041.44;;;17.64;33.80
43824;BME280;29470;53.550;9.926;2023-04-28T08:51:33;101039.72;;;16.37;35.66
43824;BME280;29470;53.550;9.926;2023-04-28T08:56:38;101039.88;;;16.05;36.04
43824;BME280;29470;53.550;9.926;2023-04-28T09:01:43;101036.94;;;15.99;36.51
43824;BME280;29470;53.550;9.926;2023-04-28T09:06:50;101030.84;;;16.51;35.60
43824;BME280;29470;53.550;9.926;2023-04-28T09:11:54;101017.66;;;17.02;34.88
43824;BME280;29470;53.550;9.926;2023-04-28T09:16:59;101011.72;;;17.05;35.48
43824;BME280;29470;53.550;9.926;2023-04-28T09:22:05;101016.03;;;17.42;34.54
43824;BME280;29470;53.550;9.926;2023-04-28T09:27:27;101014.00;;;16.62;35.98
43824;BME280;29470;53.550;9.926;2023-04-28T09:32:31;101005.94;;;16.76;35.46
43824;BME280;29470;53.550;9.926;2023-04-28T09:37:40;101000.88;;;17.74;34.27
43824;BME280;29470;53.550;9.926;2023-04-28T09:42:44;100996.22;;;18.28;33.69
43824;BME280;29470;53.550;9.926;2023-04-28T09:47:48;100998.59;;;18.02;34.00
43824;BME280;29470;53.550;9.926;2023-04-28T09:52:56;100988.34;;;18.49;33.57
43824;BME280;29470;53.550;9.926;2023-04-28T09:58:05;100979.50;;;18.04;34.26
43824;BME280;29470;53.550;9.926;2023-04-28T10:03:13;100977.16;;;17.91;34.21
43824;BME280;29470;53.550;9.926;2023-04-28T10:08:19;100970.88;;;17.66;35.00
43824;BME280;29470;53.550;9.926;2023-04-28T10:13:23;100958.41;;;17.60;35.08
43824;BME280;29470;53.550;9.926;2023-04-28T10:18:26;100957.09;;;17.70;34.90
43824;BME280;29470;53.550;9.926;2023-04-28T10:23:46;100953.59;;;17.30;35.21
43824;BME280;29470;53.550;9.926;2023-04-28T10:28:54;100937.56;;;16.85;36.10
43824;BME280;29470;53.550;9.926;2023-04-28T10:34:20;100931.72;;;17.89;34.81
43824;BME280;29470;53.550;9.926;2023-04-28T10:39:24;100920.56;;;17.93;34.57
43824;BME280;29470;53.550;9.926;2023-04-28T10:44:43;100930.28;;;17.55;35.18
43824;BME280;29470;53.550;9.926;2023-04-28T10:50:08;100927.88;;;18.00;34.27
43824;BME280;29470;53.550;9.926;2023-04-28T10:55:28;100918.22;;;18.64;33.25
43824;BME280;29470;53.550;9.926;2023-04-28T11:00:53;100909.03;;;18.30;33.77
43824;BME280;29470;53.550;9.926;2023-04-28T11:06:17;100919.78;;;18.15;34.70
43824;BME280;29470;53.550;9.926;2023-04-28T11:11:23;100911.19;;;18.63;33.99
43824;BME280;29470;53.550;9.926;2023-04-28T11:16:27;100898.47;;;18.73;33.80
43824;BME280;29470;53.550;9.926;2023-04-28T11:21:31;100903.81;;;18.09;34.34
43824;BME280;29470;53.550;9.926;2023-04-28T11:26:39;100896.50;;;17.80;34.81
43824;BME280;29470;53.550;9.926;2023-04-28T11:31:48;100891.03;;;18.38;34.23
43824;BME280;29470;53.550;9.926;2023-04-28T11:36:51;100886.66;;;18.61;34.19
43824;BME280;29470;53.550;9.926;2023-04-28T11:41:57;100883.97;;;18.82;33.54
43824;BME280;29470;53.550;9.926;2023-04-28T11:47:02;100871.16;;;18.43;34.33
43824;BME280;29470;53.550;9.926;2023-04-28T11:52:07;100873.50;;;18.60;34.72
43824;BME280;29470;53.550;9.926;2023-04-28T11:57:18;100877.88;;;18.59;34.28
43824;BME280;29470;53.550;9.926;2023-04-28T12:02:26;100873.41;;;18.13;34.98
43824;BME280;29470;53.550;9.926;2023-04-28T12:07:40;100867.38;;;18.82;34.18
43824;BME280;29470;53.550;9.926;2023-04-28T12:12:45;100862.88;;;18.79;34.19
43824;BME280;29470;53.550;9.926;2023-04-28T12:17:53;100856.09;;;19.07;34.23
43824;BME280;29470;53.550;9.926;2023-04-28T12:22:58;100847.59;;;18.90;34.11
43824;BME280;29470;53.550;9.926;2023-04-28T12:28:08;100833.25;;;17.91;36.14
43824;BME280;29470;53.550;9.926;2023-04-28T12:33:21;100832.22;;;18.30;35.42
43824;BME280;29470;53.550;9.926;2023-04-28T12:38:25;100817.81;;;17.33;36.91
43824;BME280;29470;53.550;9.926;2023-04-28T12:43:32;100820.56;;;17.36;37.11
43824;BME280;29470;53.550;9.926;2023-04-28T12:48:36;100823.34;;;17.61;36.84
43824;BME280;29470;53.550;9.926;2023-04-28T12:53:40;100805.88;;;17.19;37.54
43824;BME280;29470;53.550;9.926;2023-04-28T12:58:44;100800.84;;;17.87;37.12
43824;BME280;29470;53.550;9.926;2023-04-28T13:03:47;100806.38;;;17.95;36.78
43824;BME280;29470;53.550;9.926;2023-04-28T13:08:53;100809.00;;;17.31;37.48
43824;BME280;29470;53.550;9.926;2023-04-28T13:14:00;100799.09;;;17.03;37.92
43824;BME280;29470;53.550;9.926;2023-04-28T13:19:04;100797.59;;;16.90;38.40
43824;BME280;29470;53.550;9.926;2023-04-28T13:24:31;100796.59;;;17.26;37.68
43824;BME280;29470;53.550;9.926;2023-04-28T13:29:41;100781.50;;;17.61;37.58
43824;BME280;29470;53.550;9.926;2023-04-28T13:34:56;100772.22;;;17.48;37.99
43824;BME280;29470;53.550;9.926;2023-04-28T13:39:59;100761.47;;;17.40;38.19
43824;BME280;29470;53.550;9.926;2023-04-28T13:45:07;100765.75;;;17.38;38.66
43824;BME280;29470;53.550;9.926;2023-04-28T13:50:09;100750.09;;;17.18;38.89
43824;BME280;29470;53.550;9.926;2023-04-28T13:55:13;100744.38;;;17.71;38.15
43824;BME280;29470;53.550;9.926;2023-04-28T14:00:23;100751.75;;;17.37;38.96
43824;BME280;29470;53.550;9.926;2023-04-28T14:05:26;100755.59;;;17.90;38.41
43824;BME280;29470;53.550;9.926;2023-04-28T14:10:50;100745.31;;;17.72;38.79
43824;BME280;29470;53.550;9.926;2023-04-28T14:16:05;100739.69;;;17.20;40.01
43824;BME280;29470;53.550;9.926;2023-04-28T14:21:10;100739.84;;;17.23;40.73
43824;BME280;29470;53.550;9.926;2023-04-28T14:26:16;100737.66;;;17.55;40.20
43824;BME280;29470;53.550;9.926;2023-04-28T14:31:55;100733.41;;;17.36;40.49
43824;BME280;29470;53.550;9.926;2023-04-28T14:37:13;100734.59;;;17.23;40.51
43824;BME280;29470;53.550;9.926;2023-04-28T14:42:18;100721.56;;;17.44;40.05
43824;BME280;29470;53.550;9.926;2023-04-28T14:47:25;100721.25;;;16.96;41.87
43824;BME280;29470;53.550;9.926;2023-04-28T14:52:29;100710.72;;;16.94;42.18
43824;BME280;29470;53.550;9.926;2023-04-28T14:57:33;100704.47;;;17.10;41.93
43824;BME280;29470;53.550;9.926;2023-04-28T15:02:39;100708.09;;;17.14;41.91
43824;BME280;29470;53.550;9.926;2023-04-28T15:07:43;100704.94;;;17.01;42.23
43824;BME280;29470;53.550;9.926;2023-04-28T15:12:48;100701.75;;;16.68;42.58
43824;BME280;29470;53.550;9.926;2023-04-28T15:17:53;100685.53;;;17.16;42.20
43824;BME280;29470;53.550;9.926;2023-04-28T15:23:01;100694.56;;;17.45;41.99
43824;BME280;29470;53.550;9.926;2023-04-28T15:28:07;100699.09;;;17.49;42.28
43824;BME280;29470;53.550;9.926;2023-04-28T15:33:13;100689.75;;;17.12;44.05
43824;BME280;29470;53.550;9.926;2023-04-28T15:38:19;100685.56;;;16.55;45.32
43824;BME280;29470;53.550;9.926;2023-04-28T15:43:25;100678.28;;;16.48;45.66
43824;BME280;29470;53.550;9.926;2023-04-28T15:48:31;100665.84;;;16.42;46.05
43824;BME280;29470;53.550;9.926;2023-04-28T15:53:45;100658.75;;;16.59;44.82
43824;BME280;29470;53.550;9.926;2023-04-28T15:59:29;100638.81;;;17.02;43.73
43824;BME280;29470;53.550;9.926;2023-04-28T16:05:18;100643.47;;;16.90;43.81
43824;BME280;29470;53.550;9.926;2023-04-28T16:10:41;100638.97;;;17.28;43.23
43824;BME280;29470;53.550;9.926;2023-04-28T16:16:16;100634.09;;;17.36;42.99
43824;BME280;29470;53.550;9.926;2023-04-28T16:22:20;100631.16;;;17.51;42.80
43824;BME280;29470;53.550;9.926;2023-04-28T16:28:34;100639.75;;;17.04;43.60
43824;BME280;29470;53.550;9.926;2023-04-28T16:34:33;100619.97;;;16.47;44.68
43824;BME280;29470;53.550;9.926;2023-04-28T16:39:54;100622.94;;;16.76;45.21
43824;BME280;29470;53.550;9.926;2023-04-28T16:44:59;100622.53;;;16.88;46.76
43824;BME280;29470;53.550;9.926;2023-04-28T16:50:02;100630.16;;;16.84;47.39
43824;BME280;29470;53.550;9.926;2023-04-28T16:55:07;100637.44;;;16.70;48.27
43824;BME280;29470;53.550;9.926;2023-04-28T17:00:12;100646.47;;;16.57;49.67
43824;BME280;29470;53.550;9.926;2023-04-28T17:05:15;100650.03;;;16.59;49.36
43824;BME280;29470;53.550;9.926;2023-04-28T17:10:20;100652.81;;;16.42;49.71
43824;BME280;29470;53.550;9.926;2023-04-28T17:15:23;100652.38;;;16.93;51.25
43824;BME280;29470;53.550;9.926;2023-04-28T17:20:27;100645.69;;;16.59;51.97
43824;BME280;29470;53.550;9.926;2023-04-28T17:31:48;100633.09;;;16.29;54.33
43824;BME280;29470;53.550;9.926;2023-04-28T17:44:12;100625.03;;;15.85;54.53
43824;BME280;29470;53.550;9.926;2023-04-28T17:49:23;100629.63;;;15.91;54.64
43824;BME280;29470;53.550;9.926;2023-04-28T17:54:26;100639.34;;;15.94;55.16
43824;BME280;29470;53.550;9.926;2023-04-28T17:59:32;100651.16;;;16.05;54.79
43824;BME280;29470;53.550;9.926;2023-04-28T18:04:54;100653.56;;;16.40;56.29
43824;BME280;29470;53.550;9.926;2023-04-28T18:10:22;100655.44;;;15.67;59.21
43824;BME280;29470;53.550;9.926;2023-04-28T18:15:55;100655.00;;;15.57;62.13
43824;BME280;29470;53.550;9.926;2023-04-28T18:28:37;100659.25;;;15.55;64.57
43824;BME280;29470;53.550;9.926;2023-04-28T18:33:43;100643.50;;;15.34;65.52
43824;BME280;29470;53.550;9.926;2023-04-28T18:38:46;100644.97;;;14.93;70.06
43824;BME280;29470;53.550;9.926;2023-04-28T18:43:51;100642.19;;;14.55;72.85
43824;BME280;29470;53.550;9.926;2023-04-28T18:48:54;100638.63;;;14.03;74.83
43824;BME280;29470;53.550;9.926;2023-04-28T18:54:03;100631.25;;;14.11;75.36
43824;BME280;29470;53.550;9.926;2023-04-28T18:59:10;100623.81;;;14.02;74.95
43824;BME280;29470;53.550;9.926;2023-04-28T19:04:14;100635.63;;;13.95;75.39
43824;BME280;29470;53.550;9.926;2023-04-28T19:09:19;100615.38;;;14.39;73.64
43824;BME280;29470;53.550;9.926;2023-04-28T19:14:28;100622.09;;;14.36;73.57
43824;BME280;29470;53.550;9.926;2023-04-28T19:19:32;100632.41;;;14.67;73.18
43824;BME280;29470;53.550;9.926;2023-04-28T19:24:46;100651.84;;;14.74;73.40
43824;BME280;29470;53.550;9.926;2023-04-28T19:29:50;100656.97;;;14.56;78.17
43824;BME280;29470;53.550;9.926;2023-04-28T19:34:54;100669.84;;;14.36;85.73
43824;BME280;29470;53.550;9.926;2023-04-28T19:39:57;100688.28;;;14.24;85.53
43824;BME280;29470;53.550;9.926;2023-04-28T19:45:04;100690.88;;;14.41;86.14
43824;BME280;29470;53.550;9.926;2023-04-28T19:50:08;100678.78;;;14.58;83.68
43824;BME280;29470;53.550;9.926;2023-04-28T19:55:12;100680.78;;;14.31;85.58
43824;BME280;29470;53.550;9.926;2023-04-28T20:00:20;100679.59;;;14.24;86.01
43824;BME280;29470;53.550;9.926;2023-04-28T20:05:24;100673.16;;;14.34;86.34
43824;BME280;29470;53.550;9.926;2023-04-28T20:10:27;100684.38;;;14.16;87.34
43824;BME280;29470;53.550;9.926;2023-04-28T20:15:32;100674.66;;;14.12;88.21
43824;BME280;29470;53.550;9.926;2023-04-28T20:20:35;100668.16;;;13.72;91.10
43824;BME280;29470;53.550;9.926;2023-04-28T20:25:38;100675.94;;;13.72;93.45
43824;BME280;29470;53.550;9.926;2023-04-28T20:30:43;100675.19;;;13.58;97.53
43824;BME280;29470;53.550;9.926;2023-04-28T20:35:46;100678.78;;;13.30;95.21
43824;BME280;29470;53.550;9.926;2023-04-28T20:40:49;100671.72;;;13.43;93.80
43824;BME280;29470;53.550;9.926;2023-04-28T20:45:54;100668.44;;;13.62;94.10
43824;BME280;29470;53.550;9.926;2023-04-28T20:51:00;100673.16;;;14.34;87.15
43824;BME280;29470;53.550;9.926;2023-04-28T20:56:04;100685.19;;;13.67;89.52
43824;BME280;29470;53.550;9.926;2023-04-28T21:01:08;100673.22;;;13.54;89.46
43824;BME280;29470;53.550;9.926;2023-04-28T21:06:11;100677.78;;;14.06;88.10
43824;BME280;29470;53.550;9.926;2023-04-28T21:11:15;100669.34;;;14.10;87.88
43824;BME280;29470;53.550;9.926;2023-04-28T21:16:19;100668.38;;;13.60;88.41
43824;BME280;29470;53.550;9.926;2023-04-28T21:21:23;100668.94;;;13.71;88.88
43824;BME280;29470;53.550;9.926;2023-04-28T21:26:25;100656.22;;;13.44;89.38
43824;BME280;29470;53.550;9.926;2023-04-28T21:31:30;100647.78;;;13.33;91.14
43824;BME280;29470;53.550;9.926;2023-04-28T21:36:32;100643.50;;;13.19;92.21
43824;BME280;29470;53.550;9.926;2023-04-28T21:41:35;100642.63;;;13.03;92.72
43824;BME280;29470;53.550;9.926;2023-04-28T21:46:40;100638.09;;;12.84;92.22
43824;BME280;29470;53.550;9.926;2023-04-28T22:05:35;100640.81;;;12.42;93.88
43824;BME280;29470;53.550;9.926;2023-04-28T22:10:38;100636.44;;;12.71;93.46
43824;BME280;29470;53.550;9.926;2023-04-28T22:15:41;100636.09;;;12.65;93.87
43824;BME280;29470;53.550;9.926;2023-04-28T22:20:46;100637.34;;;12.57;91.40
43824;BME280;29470;53.550;9.926;2023-04-28T22:25:50;100630.78;;;12.33;92.83
43824;BME280;29470;53.550;9.926;2023-04-28T22:30:53;100638.31;;;12.29;93.24
43824;BME280;29470;53.550;9.926;2023-04-28T22:35:58;100640.53;;;12.37;92.26
43824;BME280;29470;53.550;9.926;2023-04-28T22:41:00;100650.56;;;12.46;92.84
43824;BME280;29470;53.550;9.926;2023-04-28T22:46:03;100661.81;;;12.32;91.45
43824;BME280;29470;53.550;9.926;2023-04-28T22:51:08;100641.78;;;12.44;91.93
43824;BME280;29470;53.550;9.926;2023-04-28T22:56:10;100649.75;;;11.90;92.32
43824;BME280;29470;53.550;9.926;2023-04-28T23:01:13;100651.34;;;12.45;92.63
43824;BME280;29470;53.550;9.926;2023-04-28T23:06:18;100652.53;;;12.50;89.43
43824;BME280;29470;53.550;9.926;2023-04-28T23:11:21;100653.94;;;12.30;89.34
43824;BME280;29470;53.550;9.926;2023-04-28T23:16:27;100658.06;;;12.27;89.87
43824;BME280;29470;53.550;9.926;2023-04-28T23:21:31;100648.75;;;12.02;89.83
43824;BME280;29470;53.550;9.926;2023-04-28T23:26:34;100648.97;;;12.05;90.52
43824;BME280;29470;53.550;9.926;2023-04-28T23:31:38;100655.84;;;11.77;92.11
43824;BME280;29470;53.550;9.926;2023-04-28T23:36:45;100652.72;;;12.10;92.42
43824;BME280;29470;53.550;9.926;2023-04-28T23:41:53;100655.81;;;12.04;90.85
43824;BME280;29470;53.550;9.926;2023-04-28T23:47:00;100670.75;;;11.95;90.51
43824;BME280;29470;53.550;9.926;2023-04-28T23:52:04;100664.44;;;11.76;91.52
43824;BME280;29470;53.550;9.926;2023-04-28T23:57:08;100676.16;;;11.85;91.08
